Terminal Aerodrome Forecast
Issued by NWS Bismarck, ND

Home | Current Version | Previous Version | Text Only | Print | Product List | Glossary Off
Versions: 1 2 3 4 5 6 7 8 9 10 11 12 13 14 15 16 17 18 19 20 21

594
FTUS43 KBIS 161130 AAB
TAFBIS
TAF AMD
KBIS 161130Z 1612/1712 12011KT P6SM SCT006 OVC020
      TEMPO 1612/1614 BKN006
     FM162000 15015G23KT P6SM BKN150
     FM170100 14008KT P6SM OVC150
     FM170300 VRB05KT P6SM OVC090=

USA.gov is the U.S. government's official web portal to all federal, state and local government web resources and services.